sensor_id;sensor_type;location;lat;lon;timestamp;temperature;humidity
17697;DHT22;8967;47.984;7.842;2022-08-06T00:01:55;23.70;70.70
17697;DHT22;8967;47.984;7.842;2022-08-06T00:04:22;23.60;70.80
17697;DHT22;8967;47.984;7.842;2022-08-06T00:06:49;23.60;71.10
17697;DHT22;8967;47.984;7.842;2022-08-06T00:09:16;23.60;71.10
17697;DHT22;8967;47.984;7.842;2022-08-06T00:11:44;23.60;71.10
17697;DHT22;8967;47.984;7.842;2022-08-06T00:14:11;23.60;71.20
17697;DHT22;8967;47.984;7.842;2022-08-06T00:16:38;23.60;71.30
17697;DHT22;8967;47.984;7.842;2022-08-06T00:19:05;23.60;71.10
17697;DHT22;8967;47.984;7.842;2022-08-06T00:21:32;23.50;71.20
17697;DHT22;8967;47.984;7.842;2022-08-06T00:23:59;23.50;71.30
17697;DHT22;8967;47.984;7.842;2022-08-06T00:26:28;23.50;71.50
17697;DHT22;8967;47.984;7.842;2022-08-06T00:28:59;23.50;71.50
17697;DHT22;8967;47.984;7.842;2022-08-06T00:31:26;23.40;71.30
17697;DHT22;8967;47.984;7.842;2022-08-06T00:33:52;23.40;71.80
17697;DHT22;8967;47.984;7.842;2022-08-06T00:36:21;23.40;71.80
17697;DHT22;8967;47.984;7.842;2022-08-06T00:38:48;23.40;72.00
17697;DHT22;8967;47.984;7.842;2022-08-06T00:41:15;23.40;71.90
17697;DHT22;8967;47.984;7.842;2022-08-06T00:43:43;23.40;71.90
17697;DHT22;8967;47.984;7.842;2022-08-06T00:46:12;23.40;71.90
17697;DHT22;8967;47.984;7.842;2022-08-06T00:48:39;23.30;71.90
17697;DHT22;8967;47.984;7.842;2022-08-06T00:51:06;23.30;72.30
17697;DHT22;8967;47.984;7.842;2022-08-06T00:53:33;23.30;72.50
17697;DHT22;8967;47.984;7.842;2022-08-06T00:56:05;23.20;72.40
17697;DHT22;8967;47.984;7.842;2022-08-06T00:58:32;23.30;72.50
17697;DHT22;8967;47.984;7.842;2022-08-06T01:00:59;23.20;72.50
17697;DHT22;8967;47.984;7.842;2022-08-06T01:03:27;23.20;72.50
17697;DHT22;8967;47.984;7.842;2022-08-06T01:05:54;23.20;72.40
17697;DHT22;8967;47.984;7.842;2022-08-06T01:08:21;23.20;72.90
17697;DHT22;8967;47.984;7.842;2022-08-06T01:10:49;23.20;73.10
17697;DHT22;8967;47.984;7.842;2022-08-06T01:13:16;23.20;73.20
17697;DHT22;8967;47.984;7.842;2022-08-06T01:15:45;23.10;74.10
17697;DHT22;8967;47.984;7.842;2022-08-06T01:18:22;23.10;73.70
17697;DHT22;8967;47.984;7.842;2022-08-06T01:21:02;23.00;73.90
17697;DHT22;8967;47.984;7.842;2022-08-06T01:23:49;23.10;74.00
17697;DHT22;8967;47.984;7.842;2022-08-06T01:26:26;23.10;74.10
17697;DHT22;8967;47.984;7.842;2022-08-06T01:29:00;23.10;74.20
17697;DHT22;8967;47.984;7.842;2022-08-06T01:31:34;23.10;74.20
17697;DHT22;8967;47.984;7.842;2022-08-06T01:34:07;23.00;74.50
17697;DHT22;8967;47.984;7.842;2022-08-06T01:36:39;23.00;74.80
17697;DHT22;8967;47.984;7.842;2022-08-06T01:39:07;23.00;75.00
17697;DHT22;8967;47.984;7.842;2022-08-06T01:41:41;23.00;75.20
17697;DHT22;8967;47.984;7.842;2022-08-06T01:44:13;23.10;75.40
17697;DHT22;8967;47.984;7.842;2022-08-06T01:46:44;23.00;75.50
17697;DHT22;8967;47.984;7.842;2022-08-06T01:49:23;23.00;75.60
17697;DHT22;8967;47.984;7.842;2022-08-06T01:51:52;23.10;75.80
17697;DHT22;8967;47.984;7.842;2022-08-06T01:54:23;23.00;75.40
17697;DHT22;8967;47.984;7.842;2022-08-06T01:56:52;23.00;75.00
17697;DHT22;8967;47.984;7.842;2022-08-06T01:59:26;23.00;75.70
17697;DHT22;8967;47.984;7.842;2022-08-06T02:01:56;23.00;74.90
17697;DHT22;8967;47.984;7.842;2022-08-06T02:04:29;22.90;74.80
17697;DHT22;8967;47.984;7.842;2022-08-06T02:06:58;22.90;74.80
17697;DHT22;8967;47.984;7.842;2022-08-06T02:09:28;22.90;74.60
17697;DHT22;8967;47.984;7.842;2022-08-06T02:12:02;22.90;74.80
17697;DHT22;8967;47.984;7.842;2022-08-06T02:14:36;22.90;75.10
17697;DHT22;8967;47.984;7.842;2022-08-06T02:17:05;22.90;75.10
17697;DHT22;8967;47.984;7.842;2022-08-06T02:19:34;22.90;75.30
17697;DHT22;8967;47.984;7.842;2022-08-06T02:22:03;22.90;75.50
17697;DHT22;8967;47.984;7.842;2022-08-06T02:24:31;22.90;76.30
17697;DHT22;8967;47.984;7.842;2022-08-06T02:27:01;22.80;75.50
17697;DHT22;8967;47.984;7.842;2022-08-06T02:29:29;22.90;75.80
17697;DHT22;8967;47.984;7.842;2022-08-06T02:32:01;22.80;75.90
17697;DHT22;8967;47.984;7.842;2022-08-06T02:34:28;22.80;75.90
17697;DHT22;8967;47.984;7.842;2022-08-06T02:36:57;22.80;76.20
17697;DHT22;8967;47.984;7.842;2022-08-06T02:39:27;22.80;75.30
17697;DHT22;8967;47.984;7.842;2022-08-06T02:42:06;22.80;75.10
17697;DHT22;8967;47.984;7.842;2022-08-06T02:44:39;22.80;75.00
17697;DHT22;8967;47.984;7.842;2022-08-06T02:47:12;22.80;74.70
17697;DHT22;8967;47.984;7.842;2022-08-06T02:49:43;22.80;73.10
17697;DHT22;8967;47.984;7.842;2022-08-06T02:52:15;22.80;73.30
17697;DHT22;8967;47.984;7.842;2022-08-06T02:54:47;22.80;72.70
17697;DHT22;8967;47.984;7.842;2022-08-06T02:57:20;22.80;72.00
17697;DHT22;8967;47.984;7.842;2022-08-06T02:59:52;22.80;71.60
17697;DHT22;8967;47.984;7.842;2022-08-06T03:02:23;22.80;71.10
17697;DHT22;8967;47.984;7.842;2022-08-06T03:04:54;22.80;70.30
17697;DHT22;8967;47.984;7.842;2022-08-06T03:07:23;22.80;70.00
17697;DHT22;8967;47.984;7.842;2022-08-06T03:09:55;22.80;70.00
17697;DHT22;8967;47.984;7.842;2022-08-06T03:12:23;22.80;70.10
17697;DHT22;8967;47.984;7.842;2022-08-06T03:14:52;22.70;69.10
17697;DHT22;8967;47.984;7.842;2022-08-06T03:17:22;22.70;69.10
17697;DHT22;8967;47.984;7.842;2022-08-06T03:19:50;22.70;69.20
17697;DHT22;8967;47.984;7.842;2022-08-06T03:22:19;22.70;68.60
17697;DHT22;8967;47.984;7.842;2022-08-06T03:24:47;22.70;68.30
17697;DHT22;8967;47.984;7.842;2022-08-06T03:27:15;22.60;68.30
17697;DHT22;8967;47.984;7.842;2022-08-06T03:29:43;22.60;68.40
17697;DHT22;8967;47.984;7.842;2022-08-06T03:32:12;22.70;68.40
17697;DHT22;8967;47.984;7.842;2022-08-06T03:34:44;22.70;68.50
17697;DHT22;8967;47.984;7.842;2022-08-06T03:37:13;22.70;68.30
17697;DHT22;8967;47.984;7.842;2022-08-06T03:39:44;22.70;68.20
17697;DHT22;8967;47.984;7.842;2022-08-06T03:42:12;22.70;68.00
17697;DHT22;8967;47.984;7.842;2022-08-06T03:44:39;22.70;67.50
17697;DHT22;8967;47.984;7.842;2022-08-06T03:47:09;22.70;67.90
17697;DHT22;8967;47.984;7.842;2022-08-06T03:49:41;22.70;67.80
17697;DHT22;8967;47.984;7.842;2022-08-06T03:52:13;22.70;67.80
17697;DHT22;8967;47.984;7.842;2022-08-06T03:54:46;22.70;67.50
17697;DHT22;8967;47.984;7.842;2022-08-06T03:57:17;22.60;67.40
17697;DHT22;8967;47.984;7.842;2022-08-06T03:59:47;22.60;67.50
17697;DHT22;8967;47.984;7.842;2022-08-06T04:02:15;22.60;67.30
17697;DHT22;8967;47.984;7.842;2022-08-06T04:04:46;22.50;67.30
17697;DHT22;8967;47.984;7.842;2022-08-06T04:07:16;22.50;67.60
17697;DHT22;8967;47.984;7.842;2022-08-06T04:09:44;22.50;67.80
17697;DHT22;8967;47.984;7.842;2022-08-06T04:12:12;22.50;67.80
17697;DHT22;8967;47.984;7.842;2022-08-06T04:14:42;22.50;67.70
17697;DHT22;8967;47.984;7.842;2022-08-06T04:17:09;22.60;67.70
17697;DHT22;8967;47.984;7.842;2022-08-06T04:19:37;22.50;67.20
17697;DHT22;8967;47.984;7.842;2022-08-06T04:22:05;22.50;66.60
17697;DHT22;8967;47.984;7.842;2022-08-06T04:24:33;22.50;66.90
17697;DHT22;8967;47.984;7.842;2022-08-06T04:27:03;22.50;66.80
17697;DHT22;8967;47.984;7.842;2022-08-06T04:29:33;22.50;66.80
17697;DHT22;8967;47.984;7.842;2022-08-06T04:32:04;22.50;66.70
17697;DHT22;8967;47.984;7.842;2022-08-06T04:34:33;22.50;67.00
17697;DHT22;8967;47.984;7.842;2022-08-06T04:37:01;22.50;66.50
17697;DHT22;8967;47.984;7.842;2022-08-06T04:39:30;22.50;66.20
17697;DHT22;8967;47.984;7.842;2022-08-06T04:41:58;22.50;66.20
17697;DHT22;8967;47.984;7.842;2022-08-06T04:44:28;22.50;66.00
17697;DHT22;8967;47.984;7.842;2022-08-06T04:46:57;22.50;65.80
17697;DHT22;8967;47.984;7.842;2022-08-06T04:49:24;22.50;65.80
17697;DHT22;8967;47.984;7.842;2022-08-06T04:51:51;22.50;65.30
17697;DHT22;8967;47.984;7.842;2022-08-06T04:54:18;22.50;65.50
17697;DHT22;8967;47.984;7.842;2022-08-06T04:56:45;22.50;65.50
17697;DHT22;8967;47.984;7.842;2022-08-06T04:59:13;22.50;65.20
17697;DHT22;8967;47.984;7.842;2022-08-06T05:01:40;22.50;65.10
17697;DHT22;8967;47.984;7.842;2022-08-06T05:04:09;22.50;66.10
17697;DHT22;8967;47.984;7.842;2022-08-06T05:06:45;22.50;65.30
17697;DHT22;8967;47.984;7.842;2022-08-06T05:09:17;22.50;65.30
17697;DHT22;8967;47.984;7.842;2022-08-06T05:11:48;22.50;65.30
17697;DHT22;8967;47.984;7.842;2022-08-06T05:14:24;22.40;65.40
17697;DHT22;8967;47.984;7.842;2022-08-06T05:16:54;22.40;65.20
17697;DHT22;8967;47.984;7.842;2022-08-06T05:19:26;22.40;65.50
17697;DHT22;8967;47.984;7.842;2022-08-06T05:21:55;22.40;65.60
17697;DHT22;8967;47.984;7.842;2022-08-06T05:24:24;22.40;65.60
17697;DHT22;8967;47.984;7.842;2022-08-06T05:26:52;22.40;65.50
17697;DHT22;8967;47.984;7.842;2022-08-06T05:29:22;22.40;65.50
17697;DHT22;8967;47.984;7.842;2022-08-06T05:31:49;22.40;65.30
17697;DHT22;8967;47.984;7.842;2022-08-06T05:34:23;22.40;65.20
17697;DHT22;8967;47.984;7.842;2022-08-06T05:36:50;22.30;65.00
17697;DHT22;8967;47.984;7.842;2022-08-06T05:39:17;22.30;65.30
17697;DHT22;8967;47.984;7.842;2022-08-06T05:41:45;22.30;65.00
17697;DHT22;8967;47.984;7.842;2022-08-06T05:44:12;22.20;65.40
17697;DHT22;8967;47.984;7.842;2022-08-06T05:46:48;22.20;65.60
17697;DHT22;8967;47.984;7.842;2022-08-06T05:49:21;22.20;65.50
17697;DHT22;8967;47.984;7.842;2022-08-06T05:51:52;22.10;65.30
17697;DHT22;8967;47.984;7.842;2022-08-06T05:54:28;22.10;65.30
17697;DHT22;8967;47.984;7.842;2022-08-06T05:57:02;22.10;65.40
17697;DHT22;8967;47.984;7.842;2022-08-06T05:59:32;22.10;65.40
17697;DHT22;8967;47.984;7.842;2022-08-06T06:02:04;22.00;65.50
17697;DHT22;8967;47.984;7.842;2022-08-06T06:04:32;22.00;65.10
17697;DHT22;8967;47.984;7.842;2022-08-06T06:07:00;21.90;64.80
17697;DHT22;8967;47.984;7.842;2022-08-06T06:09:29;21.90;65.30
17697;DHT22;8967;47.984;7.842;2022-08-06T06:11:57;21.90;65.20
17697;DHT22;8967;47.984;7.842;2022-08-06T06:14:36;21.90;65.20
17697;DHT22;8967;47.984;7.842;2022-08-06T06:17:24;21.90;65.20
17697;DHT22;8967;47.984;7.842;2022-08-06T06:20:00;22.00;65.10
17697;DHT22;8967;47.984;7.842;2022-08-06T06:22:33;22.00;65.00
17697;DHT22;8967;47.984;7.842;2022-08-06T06:25:06;22.00;64.60
17697;DHT22;8967;47.984;7.842;2022-08-06T06:27:42;22.00;64.70
17697;DHT22;8967;47.984;7.842;2022-08-06T06:30:16;22.00;64.80
17697;DHT22;8967;47.984;7.842;2022-08-06T06:32:52;22.00;64.60
17697;DHT22;8967;47.984;7.842;2022-08-06T06:35:28;22.10;64.60
17697;DHT22;8967;47.984;7.842;2022-08-06T06:38:06;22.10;64.80
17697;DHT22;8967;47.984;7.842;2022-08-06T06:40:43;22.10;65.00
17697;DHT22;8967;47.984;7.842;2022-08-06T06:43:16;22.10;64.70
17697;DHT22;8967;47.984;7.842;2022-08-06T06:45:51;22.10;64.50
17697;DHT22;8967;47.984;7.842;2022-08-06T06:48:26;22.10;64.50
17697;DHT22;8967;47.984;7.842;2022-08-06T06:51:01;22.10;64.60
17697;DHT22;8967;47.984;7.842;2022-08-06T06:53:35;22.10;64.80
17697;DHT22;8967;47.984;7.842;2022-08-06T06:56:03;22.20;64.60
17697;DHT22;8967;47.984;7.842;2022-08-06T06:58:34;22.20;64.70
17697;DHT22;8967;47.984;7.842;2022-08-06T07:01:04;22.20;64.60
17697;DHT22;8967;47.984;7.842;2022-08-06T07:03:33;22.30;64.70
17697;DHT22;8967;47.984;7.842;2022-08-06T07:06:02;22.30;64.30
17697;DHT22;8967;47.984;7.842;2022-08-06T07:08:32;22.30;64.50
17697;DHT22;8967;47.984;7.842;2022-08-06T07:11:01;22.40;64.60
17697;DHT22;8967;47.984;7.842;2022-08-06T07:13:29;22.40;64.80
17697;DHT22;8967;47.984;7.842;2022-08-06T07:15:59;22.40;65.00
17697;DHT22;8967;47.984;7.842;2022-08-06T07:18:27;22.40;64.80
17697;DHT22;8967;47.984;7.842;2022-08-06T07:20:57;22.50;65.00
17697;DHT22;8967;47.984;7.842;2022-08-06T07:23:25;22.50;65.00
17697;DHT22;8967;47.984;7.842;2022-08-06T07:25:53;22.50;65.20
17697;DHT22;8967;47.984;7.842;2022-08-06T07:28:22;22.60;65.20
17697;DHT22;8967;47.984;7.842;2022-08-06T07:30:51;22.60;65.20
17697;DHT22;8967;47.984;7.842;2022-08-06T07:33:19;22.60;65.30
17697;DHT22;8967;47.984;7.842;2022-08-06T07:35:47;22.60;65.20
17697;DHT22;8967;47.984;7.842;2022-08-06T07:38:20;22.60;65.40
17697;DHT22;8967;47.984;7.842;2022-08-06T07:40:51;22.60;65.50
17697;DHT22;8967;47.984;7.842;2022-08-06T07:43:21;22.70;65.60
17697;DHT22;8967;47.984;7.842;2022-08-06T07:45:50;22.70;65.90
17697;DHT22;8967;47.984;7.842;2022-08-06T07:48:24;22.60;65.50
17697;DHT22;8967;47.984;7.842;2022-08-06T07:50:54;22.70;65.60
17697;DHT22;8967;47.984;7.842;2022-08-06T07:53:23;22.70;66.50
17697;DHT22;8967;47.984;7.842;2022-08-06T07:55:50;22.70;65.70
17697;DHT22;8967;47.984;7.842;2022-08-06T07:58:20;22.80;65.50
17697;DHT22;8967;47.984;7.842;2022-08-06T08:00:48;22.80;66.00
17697;DHT22;8967;47.984;7.842;2022-08-06T08:03:15;22.90;64.80
17697;DHT22;8967;47.984;7.842;2022-08-06T08:06:03;23.00;64.30
17697;DHT22;8967;47.984;7.842;2022-08-06T08:08:54;23.00;64.50
17697;DHT22;8967;47.984;7.842;2022-08-06T08:11:22;23.10;64.50
17697;DHT22;8967;47.984;7.842;2022-08-06T08:13:52;23.10;63.80
17697;DHT22;8967;47.984;7.842;2022-08-06T08:16:20;23.10;64.20
17697;DHT22;8967;47.984;7.842;2022-08-06T08:18:48;23.10;63.80
17697;DHT22;8967;47.984;7.842;2022-08-06T08:21:15;23.20;64.10
17697;DHT22;8967;47.984;7.842;2022-08-06T08:23:44;23.20;64.00
17697;DHT22;8967;47.984;7.842;2022-08-06T08:26:13;23.30;63.50
17697;DHT22;8967;47.984;7.842;2022-08-06T08:28:42;23.30;63.40
17697;DHT22;8967;47.984;7.842;2022-08-06T08:31:11;23.30;62.90
17697;DHT22;8967;47.984;7.842;2022-08-06T08:33:39;23.30;62.90
17697;DHT22;8967;47.984;7.842;2022-08-06T08:36:07;23.40;63.20
17697;DHT22;8967;47.984;7.842;2022-08-06T08:38:34;23.40;63.20
17697;DHT22;8967;47.984;7.842;2022-08-06T08:41:04;23.50;63.20
17697;DHT22;8967;47.984;7.842;2022-08-06T08:43:42;23.50;63.20
17697;DHT22;8967;47.984;7.842;2022-08-06T08:46:11;23.50;62.70
17697;DHT22;8967;47.984;7.842;2022-08-06T08:48:39;23.60;62.90
17697;DHT22;8967;47.984;7.842;2022-08-06T08:51:08;23.60;63.00
17697;DHT22;8967;47.984;7.842;2022-08-06T08:53:52;23.70;62.80
17697;DHT22;8967;47.984;7.842;2022-08-06T08:56:20;23.70;62.10
17697;DHT22;8967;47.984;7.842;2022-08-06T08:58:48;23.70;62.60
17697;DHT22;8967;47.984;7.842;2022-08-06T09:01:16;23.70;61.50
17697;DHT22;8967;47.984;7.842;2022-08-06T09:03:43;23.70;62.00
17697;DHT22;8967;47.984;7.842;2022-08-06T09:06:13;23.70;62.10
17697;DHT22;8967;47.984;7.842;2022-08-06T09:08:40;23.80;61.70
17697;DHT22;8967;47.984;7.842;2022-08-06T09:11:07;23.70;61.30
17697;DHT22;8967;47.984;7.842;2022-08-06T09:13:37;23.80;61.20
17697;DHT22;8967;47.984;7.842;2022-08-06T09:16:05;23.80;61.30
17697;DHT22;8967;47.984;7.842;2022-08-06T09:18:33;23.80;61.30
17697;DHT22;8967;47.984;7.842;2022-08-06T09:21:00;23.90;61.40
17697;DHT22;8967;47.984;7.842;2022-08-06T09:23:29;23.90;61.80
17697;DHT22;8967;47.984;7.842;2022-08-06T09:25:56;23.90;61.70
17697;DHT22;8967;47.984;7.842;2022-08-06T09:28:29;24.00;62.00
17697;DHT22;8967;47.984;7.842;2022-08-06T09:31:00;24.00;62.00
17697;DHT22;8967;47.984;7.842;2022-08-06T09:33:30;24.10;61.60
17697;DHT22;8967;47.984;7.842;2022-08-06T09:35:58;24.10;60.20
17697;DHT22;8967;47.984;7.842;2022-08-06T09:38:26;24.10;59.80
17697;DHT22;8967;47.984;7.842;2022-08-06T09:41:10;24.10;60.10
17697;DHT22;8967;47.984;7.842;2022-08-06T09:43:38;24.10;59.70
17697;DHT22;8967;47.984;7.842;2022-08-06T09:46:06;24.10;59.60
17697;DHT22;8967;47.984;7.842;2022-08-06T09:48:35;24.10;60.10
17697;DHT22;8967;47.984;7.842;2022-08-06T09:51:02;24.20;60.20
17697;DHT22;8967;47.984;7.842;2022-08-06T09:53:30;24.20;60.30
17697;DHT22;8967;47.984;7.842;2022-08-06T09:55:57;24.20;60.00
17697;DHT22;8967;47.984;7.842;2022-08-06T09:58:32;24.20;60.10
17697;DHT22;8967;47.984;7.842;2022-08-06T10:01:15;24.20;59.70
17697;DHT22;8967;47.984;7.842;2022-08-06T10:03:43;24.20;60.00
17697;DHT22;8967;47.984;7.842;2022-08-06T10:06:12;24.30;60.50
17697;DHT22;8967;47.984;7.842;2022-08-06T10:08:39;24.30;60.30
17697;DHT22;8967;47.984;7.842;2022-08-06T10:11:07;24.20;59.80
17697;DHT22;8967;47.984;7.842;2022-08-06T10:13:35;24.20;59.90
17697;DHT22;8967;47.984;7.842;2022-08-06T10:16:15;24.20;60.00
17697;DHT22;8967;47.984;7.842;2022-08-06T10:18:45;24.20;60.00
17697;DHT22;8967;47.984;7.842;2022-08-06T10:21:14;24.20;60.50
17697;DHT22;8967;47.984;7.842;2022-08-06T10:23:45;24.30;60.70
17697;DHT22;8967;47.984;7.842;2022-08-06T10:26:15;24.30;60.60
17697;DHT22;8967;47.984;7.842;2022-08-06T10:28:46;24.30;60.40
17697;DHT22;8967;47.984;7.842;2022-08-06T10:31:15;24.20;60.30
17697;DHT22;8967;47.984;7.842;2022-08-06T10:33:48;24.20;60.60
17697;DHT22;8967;47.984;7.842;2022-08-06T10:36:19;24.20;60.70
17697;DHT22;8967;47.984;7.842;2022-08-06T10:38:50;24.20;60.60
17697;DHT22;8967;47.984;7.842;2022-08-06T10:41:20;24.20;60.70
17697;DHT22;8967;47.984;7.842;2022-08-06T10:43:48;24.20;60.90
17697;DHT22;8967;47.984;7.842;2022-08-06T10:46:16;24.30;61.00
17697;DHT22;8967;47.984;7.842;2022-08-06T10:48:45;24.30;60.60
17697;DHT22;8967;47.984;7.842;2022-08-06T10:51:14;24.30;60.60
17697;DHT22;8967;47.984;7.842;2022-08-06T10:53:43;24.30;60.40
17697;DHT22;8967;47.984;7.842;2022-08-06T10:56:13;24.30;60.20
17697;DHT22;8967;47.984;7.842;2022-08-06T10:58:41;24.30;60.30
17697;DHT22;8967;47.984;7.842;2022-08-06T11:01:10;24.30;60.40
17697;DHT22;8967;47.984;7.842;2022-08-06T11:03:50;24.30;59.80
17697;DHT22;8967;47.984;7.842;2022-08-06T11:09:24;24.40;60.90
17697;DHT22;8967;47.984;7.842;2022-08-06T11:12:12;24.40;59.90
17697;DHT22;8967;47.984;7.842;2022-08-06T11:14:41;24.40;60.00
17697;DHT22;8967;47.984;7.842;2022-08-06T11:17:11;24.50;60.30
17697;DHT22;8967;47.984;7.842;2022-08-06T11:19:42;24.50;60.00
17697;DHT22;8967;47.984;7.842;2022-08-06T11:22:35;24.50;59.80
17697;DHT22;8967;47.984;7.842;2022-08-06T11:25:04;24.40;59.70
17697;DHT22;8967;47.984;7.842;2022-08-06T11:27:52;24.50;60.00
17697;DHT22;8967;47.984;7.842;2022-08-06T11:30:21;24.50;60.00
17697;DHT22;8967;47.984;7.842;2022-08-06T11:33:02;24.50;59.90
17697;DHT22;8967;47.984;7.842;2022-08-06T11:35:42;24.60;59.60
17697;DHT22;8967;47.984;7.842;2022-08-06T11:38:13;24.60;59.90
17697;DHT22;8967;47.984;7.842;2022-08-06T11:40:57;24.60;60.90
17697;DHT22;8967;47.984;7.842;2022-08-06T11:43:46;24.60;60.50
17697;DHT22;8967;47.984;7.842;2022-08-06T11:46:18;24.70;60.40
17697;DHT22;8967;47.984;7.842;2022-08-06T11:49:14;24.70;60.10
17697;DHT22;8967;47.984;7.842;2022-08-06T11:51:43;24.70;59.90
17697;DHT22;8967;47.984;7.842;2022-08-06T11:54:15;24.70;60.10
17697;DHT22;8967;47.984;7.842;2022-08-06T11:59:45;24.80;60.30
17697;DHT22;8967;47.984;7.842;2022-08-06T12:02:15;24.80;60.00
17697;DHT22;8967;47.984;7.842;2022-08-06T12:04:44;24.80;59.70
17697;DHT22;8967;47.984;7.842;2022-08-06T12:07:18;24.90;60.00
17697;DHT22;8967;47.984;7.842;2022-08-06T12:09:58;24.90;60.00
17697;DHT22;8967;47.984;7.842;2022-08-06T12:12:33;24.90;59.90
17697;DHT22;8967;47.984;7.842;2022-08-06T12:15:02;24.90;59.60
17697;DHT22;8967;47.984;7.842;2022-08-06T12:17:32;24.90;59.60
17697;DHT22;8967;47.984;7.842;2022-08-06T12:19:59;24.90;60.30
17697;DHT22;8967;47.984;7.842;2022-08-06T12:22:29;24.90;59.40
17697;DHT22;8967;47.984;7.842;2022-08-06T12:25:00;25.00;59.00
17697;DHT22;8967;47.984;7.842;2022-08-06T12:27:30;25.00;58.90
17697;DHT22;8967;47.984;7.842;2022-08-06T12:29:59;25.00;59.20
17697;DHT22;8967;47.984;7.842;2022-08-06T12:32:30;25.00;59.10
17697;DHT22;8967;47.984;7.842;2022-08-06T12:35:00;25.00;59.10
17697;DHT22;8967;47.984;7.842;2022-08-06T12:37:37;25.10;59.10
17697;DHT22;8967;47.984;7.842;2022-08-06T12:40:08;25.10;58.80
17697;DHT22;8967;47.984;7.842;2022-08-06T12:42:53;25.10;58.90
17697;DHT22;8967;47.984;7.842;2022-08-06T12:45:21;25.10;58.50
17697;DHT22;8967;47.984;7.842;2022-08-06T12:47:56;25.20;58.40
17697;DHT22;8967;47.984;7.842;2022-08-06T12:50:27;25.10;58.10
17697;DHT22;8967;47.984;7.842;2022-08-06T12:53:06;25.20;58.30
17697;DHT22;8967;47.984;7.842;2022-08-06T12:55:34;25.20;58.20
17697;DHT22;8967;47.984;7.842;2022-08-06T12:58:02;25.10;58.10
17697;DHT22;8967;47.984;7.842;2022-08-06T13:00:30;25.20;58.10
17697;DHT22;8967;47.984;7.842;2022-08-06T13:02:58;25.20;58.30
17697;DHT22;8967;47.984;7.842;2022-08-06T13:05:26;25.20;58.30
17697;DHT22;8967;47.984;7.842;2022-08-06T13:07:54;25.20;58.60
17697;DHT22;8967;47.984;7.842;2022-08-06T13:10:23;25.20;58.70
17697;DHT22;8967;47.984;7.842;2022-08-06T13:12:54;25.30;58.70
17697;DHT22;8967;47.984;7.842;2022-08-06T13:15:25;25.30;58.60
17697;DHT22;8967;47.984;7.842;2022-08-06T13:18:04;25.30;58.80
17697;DHT22;8967;47.984;7.842;2022-08-06T13:20:38;25.30;58.90
17697;DHT22;8967;47.984;7.842;2022-08-06T13:23:05;25.30;58.90
17697;DHT22;8967;47.984;7.842;2022-08-06T13:25:45;25.30;58.70
17697;DHT22;8967;47.984;7.842;2022-08-06T13:28:14;25.30;58.90
17697;DHT22;8967;47.984;7.842;2022-08-06T13:30:42;25.30;58.90
17697;DHT22;8967;47.984;7.842;2022-08-06T13:33:13;25.40;58.80
17697;DHT22;8967;47.984;7.842;2022-08-06T13:35:40;25.40;58.80
17697;DHT22;8967;47.984;7.842;2022-08-06T13:38:07;25.40;58.90
17697;DHT22;8967;47.984;7.842;2022-08-06T13:40:38;25.40;59.00
17697;DHT22;8967;47.984;7.842;2022-08-06T13:43:06;25.40;59.10
17697;DHT22;8967;47.984;7.842;2022-08-06T13:45:33;25.40;58.70
17697;DHT22;8967;47.984;7.842;2022-08-06T13:48:03;25.40;58.80
17697;DHT22;8967;47.984;7.842;2022-08-06T13:50:33;25.40;58.30
17697;DHT22;8967;47.984;7.842;2022-08-06T13:53:00;25.40;57.70
17697;DHT22;8967;47.984;7.842;2022-08-06T13:55:27;25.40;57.90
17697;DHT22;8967;47.984;7.842;2022-08-06T13:57:55;25.40;58.20
17697;DHT22;8967;47.984;7.842;2022-08-06T14:00:24;25.40;58.20
17697;DHT22;8967;47.984;7.842;2022-08-06T14:02:51;25.40;57.90
17697;DHT22;8967;47.984;7.842;2022-08-06T14:05:19;25.40;57.80
17697;DHT22;8967;47.984;7.842;2022-08-06T14:07:46;25.40;57.60
17697;DHT22;8967;47.984;7.842;2022-08-06T14:10:13;25.40;57.40
17697;DHT22;8967;47.984;7.842;2022-08-06T14:12:41;25.40;57.70
17697;DHT22;8967;47.984;7.842;2022-08-06T14:15:09;25.40;58.00
17697;DHT22;8967;47.984;7.842;2022-08-06T14:17:38;25.40;58.10
17697;DHT22;8967;47.984;7.842;2022-08-06T14:20:08;25.40;58.00
17697;DHT22;8967;47.984;7.842;2022-08-06T14:22:35;25.40;57.90
17697;DHT22;8967;47.984;7.842;2022-08-06T14:25:02;25.40;58.00
17697;DHT22;8967;47.984;7.842;2022-08-06T14:27:29;25.50;58.00
17697;DHT22;8967;47.984;7.842;2022-08-06T14:29:56;25.50;58.70
17697;DHT22;8967;47.984;7.842;2022-08-06T14:32:23;25.50;58.10
17697;DHT22;8967;47.984;7.842;2022-08-06T14:34:52;25.50;58.00
17697;DHT22;8967;47.984;7.842;2022-08-06T14:37:21;25.50;58.00
17697;DHT22;8967;47.984;7.842;2022-08-06T14:39:48;25.50;58.00
17697;DHT22;8967;47.984;7.842;2022-08-06T14:42:15;25.50;57.70
17697;DHT22;8967;47.984;7.842;2022-08-06T14:44:59;25.40;57.90
17697;DHT22;8967;47.984;7.842;2022-08-06T14:47:31;25.40;58.00
17697;DHT22;8967;47.984;7.842;2022-08-06T14:50:00;25.50;58.10
17697;DHT22;8967;47.984;7.842;2022-08-06T14:52:27;25.50;57.80
17697;DHT22;8967;47.984;7.842;2022-08-06T14:54:56;25.40;57.70
17697;DHT22;8967;47.984;7.842;2022-08-06T14:57:24;25.40;58.00
17697;DHT22;8967;47.984;7.842;2022-08-06T14:59:51;25.40;57.90
17697;DHT22;8967;47.984;7.842;2022-08-06T15:02:21;25.40;58.20
17697;DHT22;8967;47.984;7.842;2022-08-06T15:04:52;25.40;58.20
17697;DHT22;8967;47.984;7.842;2022-08-06T15:07:21;25.50;58.00
17697;DHT22;8967;47.984;7.842;2022-08-06T15:09:48;25.50;57.90
17697;DHT22;8967;47.984;7.842;2022-08-06T15:12:16;25.50;58.10
17697;DHT22;8967;47.984;7.842;2022-08-06T15:14:43;25.50;58.20
17697;DHT22;8967;47.984;7.842;2022-08-06T15:17:10;25.50;58.10
17697;DHT22;8967;47.984;7.842;2022-08-06T15:19:37;25.50;58.10
17697;DHT22;8967;47.984;7.842;2022-08-06T15:22:09;25.60;58.30
17697;DHT22;8967;47.984;7.842;2022-08-06T15:24:38;25.60;58.40
17697;DHT22;8967;47.984;7.842;2022-08-06T15:27:05;25.60;58.30
17697;DHT22;8967;47.984;7.842;2022-08-06T15:29:34;25.60;58.40
17697;DHT22;8967;47.984;7.842;2022-08-06T15:32:01;25.60;58.20
17697;DHT22;8967;47.984;7.842;2022-08-06T15:34:28;25.60;58.50
17697;DHT22;8967;47.984;7.842;2022-08-06T15:36:55;25.60;58.50
17697;DHT22;8967;47.984;7.842;2022-08-06T15:39:22;25.60;58.60
17697;DHT22;8967;47.984;7.842;2022-08-06T15:41:51;25.70;58.30
17697;DHT22;8967;47.984;7.842;2022-08-06T15:44:18;25.70;58.40
17697;DHT22;8967;47.984;7.842;2022-08-06T15:46:44;25.60;58.40
17697;DHT22;8967;47.984;7.842;2022-08-06T15:49:11;25.70;58.50
17697;DHT22;8967;47.984;7.842;2022-08-06T15:51:38;25.70;58.60
17697;DHT22;8967;47.984;7.842;2022-08-06T15:54:06;25.70;58.40
17697;DHT22;8967;47.984;7.842;2022-08-06T15:56:33;25.70;58.50
17697;DHT22;8967;47.984;7.842;2022-08-06T15:59:01;25.70;58.40
17697;DHT22;8967;47.984;7.842;2022-08-06T16:01:30;25.70;58.40
17697;DHT22;8967;47.984;7.842;2022-08-06T16:03:58;25.70;58.30
17697;DHT22;8967;47.984;7.842;2022-08-06T16:06:25;25.80;58.40
17697;DHT22;8967;47.984;7.842;2022-08-06T16:08:52;25.80;58.40
17697;DHT22;8967;47.984;7.842;2022-08-06T16:11:19;25.80;58.20